Flight Track Log - Related Links

Times and Time Zones

All times are in EDT time to prevent confusion due to time zone crossing. See the RPA3151 flight status page for this flight to view local times or setup timezone preferences in your user account.

Time Position Orientation Groundspeed Altitude Reporting Facility
EDT Latitude Longitude Course Direction KTS MPH feet Rate Location/Type
Sun 09:03:28 AM 38.8833 -77.0667 328° Northwest 166 191 1,900  Level Potomac TRACON
Sun 09:04:28 AM 38.9333 -77.1167 322° Northwest 223 257 3,600 1,850 Climbing Potomac TRACON
Sun 09:05:00 AM 39.0737 -77.2403 322° Northwest  Level FlightAware Approximate
Sun 09:05:28 AM 38.9833 -77.1833 314° West 281 323 5,600  Level Potomac TRACON
Sun 09:06:00 AM 39.1580 -77.3160 303° West  Level FlightAware Approximate
Sun 09:06:28 AM 39.0167 -77.2667 297° West 292 336 8,300  Level Potomac TRACON
Sun 09:07:00 AM 39.2408 -77.3968 326° Northwest  Level FlightAware Approximate
Sun 09:08:00 AM 39.3291 -77.4699 328° Northwest  Level FlightAware Approximate
Sun 09:08:50 AM 39.1425 -77.4783 308° West 303 349 13,800  Level Washington Center
Sun 09:09:49 AM 39.2183 -77.5528 323° Northwest 313 360 16,300 2,269 Climbing Washington Center
Sun 09:10:49 AM 39.2983 -77.6297 323° Northwest 342 394 18,300 2,066 Climbing Washington Center
Sun 09:11:51 AM 39.3783 -77.7072 323° Northwest 356 410 20,500 2,050 Climbing Washington Center
Sun 09:12:49 AM 39.4603 -77.7850 324° Northwest 367 422 22,400 1,831 Climbing Washington Center
Sun 09:13:49 AM 39.5400 -77.8736 319° Northwest 367 422 24,100 1,587 Climbing Washington Center
Sun 09:14:50 AM 39.5833 -78.0042 293° West 372 428 25,600 1,469 Climbing Washington Center
Sun 09:16:12 AM 39.6419 -78.1944 292° West 393 452 27,600 1,352 Climbing Cleveland Center
Sun 09:17:12 AM 39.6967 -78.3247 299° West 405 466 28,800 1,150 Climbing Cleveland Center
Sun 09:18:12 AM 39.7556 -78.4553 300° West 410 472 29,900 600 Climbing Cleveland Center
Sun 09:19:12 AM 39.8100 -78.5833 299° West 410 472 30,000 50 Climbing Cleveland Center
Sun 09:20:12 AM 39.8683 -78.7086 301° West 405 466 30,000  Level Cleveland Center
Sun 09:21:12 AM 39.9244 -78.8317 301° West 405 466 30,000  Level Cleveland Center
Sun 09:22:12 AM 39.9806 -78.9547 301° West 400 460 30,000  Level Cleveland Center
Sun 09:23:12 AM 40.0342 -79.0647 303° West 400 460 30,000  Level Cleveland Center
Sun 09:24:12 AM 40.0922 -79.2044 299° West 400 460 30,000  Level Cleveland Center
Sun 09:25:12 AM 40.1519 -79.3308 302° West 395 455 30,000  Level Cleveland Center
Sun 09:26:12 AM 40.2053 -79.4522 300° West 400 460 30,000  Level Cleveland Center
Sun 09:27:12 AM 40.2522 -79.5547 301° West 400 460 30,000  Level Cleveland Center
Sun 09:28:12 AM 40.3181 -79.7036 300° West 400 460 30,000  Level Cleveland Center
Sun 09:29:12 AM 40.3733 -79.8308 300° West 400 460 30,000  Level Cleveland Center
Sun 09:30:12 AM 40.4281 -79.9558 300° West 400 460 30,000  Level Cleveland Center
Sun 09:31:12 AM 40.4808 -80.0836 299° West 400 460 30,000  Level Cleveland Center
Sun 09:32:12 AM 40.5356 -80.2089 300° West 400 460 30,000  Level Cleveland Center
Sun 09:33:12 AM 40.5922 -80.3369 300° West 400 460 30,000  Level Cleveland Center
Sun 09:34:12 AM 40.6383 -80.4517 298° West 400 460 30,000  Level Cleveland Center
Sun 09:35:12 AM 40.6947 -80.5750 301° West 400 460 30,000  Level Cleveland Center
Sun 09:36:12 AM 40.7550 -80.7092 301° West 395 455 30,000  Level Cleveland Center
Sun 09:37:12 AM 40.8089 -80.8356 299° West 395 455 30,000  Level Cleveland Center
Sun 09:38:12 AM 40.8628 -80.9647 299° West 395 455 30,000  Level Cleveland Center
Sun 09:39:12 AM 40.9144 -81.0942 298° West 400 460 30,000  Level Cleveland Center
Sun 09:40:12 AM 40.9681 -81.2239 299° West 405 466 30,000  Level Cleveland Center
Sun 09:41:12 AM 41.0233 -81.3564 299° West 405 466 30,000  Level Cleveland Center
Sun 09:42:12 AM 41.0767 -81.4839 299° West 400 460 30,000  Level Cleveland Center
Sun 09:43:12 AM 41.1339 -81.6114 301° West 400 460 30,000  Level Cleveland Center
Sun 09:44:12 AM 41.1869 -81.7392 299° West 400 460 30,000  Level Cleveland Center
Sun 09:45:12 AM 41.2419 -81.8700 299° West 400 460 30,000  Level Cleveland Center
Sun 09:46:12 AM 41.2944 -82.0008 298° West 400 460 30,000  Level Cleveland Center
Sun 09:47:12 AM 41.3389 -82.1208 296° West 400 460 30,000  Level Cleveland Center
Sun 09:48:12 AM 41.4017 -82.2442 304° West 400 460 30,000  Level Cleveland Center
Sun 09:49:12 AM 41.4728 -82.3789 305° West 400 460 30,000  Level Cleveland Center
Sun 09:50:12 AM 41.5394 -82.5000 306° West 407 468 30,000  Level Cleveland Center
Sun 09:51:12 AM 41.6042 -82.6214 306° West 407 468 30,000  Level Cleveland Center
Sun 09:52:12 AM 41.6625 -82.7317 305° West 407 468 30,000  Level Cleveland Center
Sun 09:53:12 AM 41.7289 -82.8564 306° West 407 468 30,000  Level Cleveland Center
Sun 09:54:12 AM 41.7931 -82.9783 305° West 407 468 30,000  Level Cleveland Center
Sun 09:55:12 AM 41.8594 -83.1008 306° West 407 468 30,000  Level Cleveland Center
Sun 09:56:12 AM 41.9311 -83.2403 305° West 407 468 30,000  Level Cleveland Center
Sun 09:57:12 AM 41.9911 -83.3519 306° West 414 476 30,000  Level Cleveland Center
Sun 09:58:12 AM 42.0483 -83.4831 300° West 409 471 30,000  Level Cleveland Center
Sun 09:59:12 AM 42.0739 -83.6269 284° West 400 460 30,000  Level Cleveland Center
Sun 10:00:12 AM 42.0989 -83.7764 283° West 400 460 30,000  Level Cleveland Center
Sun 10:01:12 AM 42.1219 -83.9203 282° West 400 460 30,000  Level Cleveland Center
Sun 10:02:12 AM 42.1489 -84.0675 284° West 400 460 30,000  Level Cleveland Center
Sun 10:03:12 AM 42.1714 -84.2172 282° West 400 460 30,000  Level Cleveland Center
Sun 10:04:12 AM 42.1958 -84.3644 283° West 405 466 30,000  Level Cleveland Center
Sun 10:06:24 AM 42.2486 -84.6783 283° West 406 467 30,000  Level Chicago Center
Sun 10:07:26 AM 42.2767 -84.8569 282° West 407 468 30,000  Level Chicago Center
Sun 10:08:27 AM 42.3000 -85.0042 282° West 403 464 30,000  Level Chicago Center
Sun 10:09:29 AM 42.3236 -85.1544 282° West 409 471 30,000  Level Chicago Center
Sun 10:10:31 AM 42.3461 -85.3028 282° West 404 465 30,000  Level Chicago Center
Sun 10:11:32 AM 42.3689 -85.4533 282° West 407 468 30,000  Level Chicago Center
Sun 10:12:34 AM 42.3917 -85.6028 282° West 406 467 30,000  Level Chicago Center
Sun 10:13:36 AM 42.4150 -85.7517 282° West 405 466 30,000  Level Chicago Center
Sun 10:14:37 AM 42.4361 -85.9025 281° West 407 468 30,000  Level Chicago Center
Sun 10:15:39 AM 42.4639 -86.0853 282° West 410 472 30,000  Level Chicago Center
Sun 10:16:41 AM 42.5044 -86.2306 291° West 410 472 30,000  Level Chicago Center
Sun 10:17:43 AM 42.5492 -86.3750 293° West 413 475 30,000  Level Chicago Center
Sun 10:18:44 AM 42.5928 -86.5183 292° West 411 473 30,000  Level Chicago Center
Sun 10:19:46 AM 42.6367 -86.6606 293° West 408 470 30,000  Level Chicago Center
Sun 10:20:48 AM 42.6797 -86.8044 292° West 410 472 30,000  Level Chicago Center
Sun 10:21:49 AM 42.7225 -86.9472 292° West 408 470 30,000  Level Chicago Center
Sun 10:22:51 AM 42.7647 -87.0903 292° West 406 467 30,000  Level Chicago Center
Sun 10:23:53 AM 42.8092 -87.2336 293° West 410 472 30,000  Level Chicago Center
Sun 10:24:55 AM 42.8558 -87.3947 292° West 413 475 30,000  Level Chicago Center
Sun 10:25:57 AM 42.9006 -87.5381 293° West 410 472 30,000  Level Chicago Center
Sun 10:26:58 AM 42.9497 -87.7064 292° West 411 473 30,000  Level Chicago Center
Sun 10:28:00 AM 42.9911 -87.8511 291° West 409 471 30,000  Level Chicago Center
Sun 10:29:02 AM 43.0325 -87.9958 291° West 407 468 30,000  Level Chicago Center
Sun 10:30:04 AM 43.0739 -88.1381 292° West 403 464 30,000  Level Chicago Center
Sun 10:31:05 AM 43.1164 -88.2800 292° West 400 460 30,000  Level Chicago Center
Sun 10:32:07 AM 43.1864 -88.4033 308° West 406 467 30,000  Level Chicago Center
Sun 10:33:09 AM 43.2586 -88.5272 309° West 411 473 30,000  Level Chicago Center
Sun 10:34:11 AM 43.3375 -88.6633 309° West 442 509 30,000  Level Chicago Center
Sun 10:35:12 AM 43.4194 -88.8044 309° West 463 533 30,000  Level Chicago Center
Sun 10:36:14 AM 43.5136 -88.9653 309° West 460 529 30,000  Level Chicago Center
Sun 10:37:16 AM 43.5933 -89.1039 308° West 458 527 30,000  Level Chicago Center
Sun 10:38:17 AM 43.6719 -89.2422 308° West 457 526 30,000  Level Chicago Center
Sun 10:39:19 AM 43.7519 -89.3833 308° West 463 533 30,000  Level Chicago Center
Sun 10:40:21 AM 43.8311 -89.5231 308° West 462 532 30,000  Level Chicago Center
Sun 10:41:22 AM 43.9089 -89.6625 308° West 458 527 30,000  Level Chicago Center
Sun 10:42:24 AM 43.9872 -89.8019 308° West 457 526 30,000  Level Chicago Center
Sun 10:43:31 AM 44.0761 -89.9694 306° West 462 532 30,000  Level Minneapolis Center
Sun 10:44:33 AM 44.1422 -90.1206 301° West 460 529 30,000 -98 Level Minneapolis Center
Sun 10:45:34 AM 44.2083 -90.2717 301° West 458 527 29,800 -1,122 Descending Minneapolis Center
Sun 10:46:36 AM 44.2847 -90.4494 301° West 458 527 27,700 -2,244 Descending Minneapolis Center
Sun 10:47:37 AM 44.3475 -90.5947 301° West 442 509 25,200 -1,805 Descending Minneapolis Center
Sun 10:48:39 AM 44.4069 -90.7353 301° West 425 489 24,000 -581 Descending Minneapolis Center
Sun 10:49:41 AM 44.4675 -90.8756 301° West 421 484 24,000  Level Minneapolis Center
Sun 10:50:42 AM 44.5236 -91.0078 301° West 421 484 24,000  Level Minneapolis Center
Sun 10:51:44 AM 44.5822 -91.1494 300° West 422 486 24,000  Level Minneapolis Center
Sun 10:52:46 AM 44.6522 -91.3178 300° West 420 483 24,000  Level Minneapolis Center
Sun 10:53:47 AM 44.7097 -91.4561 300° West 415 478 24,000 -195 Level Minneapolis Center
Sun 10:54:49 AM 44.7672 -91.5969 300° West 416 479 23,600 -1,463 Descending Minneapolis Center
Sun 10:55:50 AM 44.8250 -91.7369 300° West 416 479 21,000 -2,488 Descending Minneapolis Center
Sun 10:56:52 AM 44.8794 -91.8708 300° West 404 465 18,500 -2,323 Descending Minneapolis Center
Sun 10:57:54 AM 44.9328 -91.9986 301° West 383 441 16,200 -2,439 Descending Minneapolis Center
Sun 10:58:55 AM 44.9911 -92.1472 299° West 366 421 13,500 -2,439 Descending Minneapolis Center
Sun 10:59:57 AM 45.0389 -92.2669 299° West 354 407 11,200 -1,200 Descending Minneapolis Center
Sun 11:01:00 AM 45.0236 -92.3956 261° West 337 388 11,000 -88 Descending Minneapolis Center
Sun 11:02:14 AM 44.9711 -92.5072 236° Southwest 340 391 11,000 -574 Level Minneapolis Center
Sun 11:03:16 AM 44.9136 -92.6292 236° Southwest 312 359 9,700 -1,366 Descending Minneapolis Center
Sun 11:04:17 AM 44.8703 -92.7222 237° Southwest 288 331 8,200 -1,756 Descending Minneapolis Center
Sun 11:05:19 AM 44.8186 -92.8300 236° Southwest 279 321 6,100 -1,951 Descending Minneapolis Center
Sun 11:06:20 AM 44.7972 -92.9289 253° West 278 320 4,200 -1,512 Descending Minneapolis Center
Sun 11:07:22 AM 44.8072 -93.0269 278° West 259 298 3,000 -726 Descending Minneapolis Center
Sun 11:08:24 AM 44.8383 -93.0942 303° West 208 239 2,700 -634 Descending Minneapolis Center
Sun 11:09:25 AM 44.8594 -93.1436 301° West 151 174 1,700 -984 Descending Minneapolis Center

Login

Don't have an account? Register now (free) for customized features, flight alerts, and more!